Time;durP1;ratioP1;P1;durP2;ratioP2;P2;SDS_P1;SDS_P2;PMS_P1;PMS_P2;Temp;Humidity;BMP_temperature;BMP_pressure;BME280_temperature;BME280_humidity;BME280_pressure;Samples;Min_cycle;Max_cycle;Signal;HPM_P1;HPM_P2
2022/12/26 00:00:34;;;;;;;;;;;8.10;99.90;;;;;;5000115;28;19925;-40
2022/12/26 00:02:59;;;;;;;;;;;8.10;99.90;;;;;;4997550;28;20528;-38
2022/12/26 00:05:25;;;;;;;;;;;8.20;99.90;;;;;;4998951;28;19917;-37
2022/12/26 00:07:50;;;;;;;;;;;8.20;99.90;;;;;;4996741;28;19925;-37
2022/12/26 00:10:16;;;;;;;;;;;8.20;99.90;;;;;;5009749;28;19928;-38
2022/12/26 00:12:42;;;;;;;;;;;8.20;99.90;;;;;;5001794;28;19920;-37
2022/12/26 00:15:07;;;;;;;;;;;8.20;99.90;;;;;;5008688;28;19944;-37
2022/12/26 00:17:33;;;;;;;;;;;8.20;99.90;;;;;;4992188;28;20358;-38
2022/12/26 00:19:58;;;;;;;;;;;8.20;99.90;;;;;;5006674;28;19922;-37
2022/12/26 00:22:24;;;;;;;;;;;8.20;99.90;;;;;;5000524;28;19924;-38
2022/12/26 00:24:50;;;;;;;;;;;8.20;99.90;;;;;;5012540;28;19928;-37
2022/12/26 00:27:15;;;;;;;;;;;8.20;99.90;;;;;;5006607;28;19996;-37
2022/12/26 00:29:41;;;;;;;;;;;8.20;99.90;;;;;;5001881;28;19932;-37
2022/12/26 00:32:06;;;;;;;;;;;8.20;99.90;;;;;;5003074;28;20397;-37
2022/12/26 00:34:32;;;;;;;;;;;8.20;99.90;;;;;;5006320;28;20374;-37
2022/12/26 00:36:58;;;;;;;;;;;8.20;99.90;;;;;;5003384;28;19925;-37
2022/12/26 00:39:23;;;;;;;;;;;8.20;99.90;;;;;;4999435;28;19921;-37
2022/12/26 00:41:49;;;;;;;;;;;8.20;99.90;;;;;;4984829;28;19921;-40
2022/12/26 00:44:14;;;;;;;;;;;8.30;99.90;;;;;;5000046;28;20008;-41
2022/12/26 00:46:40;;;;;;;;;;;8.30;99.90;;;;;;5007259;28;19921;-38
2022/12/26 00:49:06;;;;;;;;;;;8.30;99.90;;;;;;5003216;28;19921;-37
2022/12/26 00:51:31;;;;;;;;;;;8.30;99.90;;;;;;5003316;28;20052;-37
2022/12/26 00:53:57;;;;;;;;;;;8.30;99.90;;;;;;5009035;28;19922;-36
2022/12/26 00:56:22;;;;;;;;;;;8.30;99.90;;;;;;5001520;28;20386;-37
2022/12/26 00:58:48;;;;;;;;;;;8.30;99.90;;;;;;4987637;28;20465;-37
2022/12/26 01:01:15;;;;;;;;;;;8.30;99.90;;;;;;4982885;28;20307;-42
2022/12/26 01:03:41;;;;;;;;;;;8.30;99.90;;;;;;5010115;28;20544;-38
2022/12/26 01:06:07;;;;;;;;;;;8.30;99.90;;;;;;4996252;28;19929;-37
2022/12/26 01:08:33;;;;;;;;;;;8.30;99.90;;;;;;5001133;28;19921;-39
2022/12/26 01:11:02;;;;;;;;;;;8.40;99.90;;;;;;5003152;28;20309;-37
2022/12/26 01:13:27;;;;;;;;;;;8.40;99.90;;;;;;4971088;28;19941;-37
2022/12/26 01:15:53;;;;;;;;;;;8.40;99.90;;;;;;4993507;28;19945;-37
2022/12/26 01:18:19;;;;;;;;;;;8.40;99.90;;;;;;4989342;28;19991;-37
2022/12/26 01:20:44;;;;;;;;;;;8.40;99.90;;;;;;5003073;28;19921;-37
2022/12/26 01:23:10;;;;;;;;;;;8.40;99.90;;;;;;5000527;28;19921;-38
2022/12/26 01:25:35;;;;;;;;;;;8.40;99.90;;;;;;5001443;28;19932;-38
2022/12/26 01:28:01;;;;;;;;;;;8.40;99.90;;;;;;4995803;28;19936;-38
2022/12/26 01:30:26;;;;;;;;;;;8.40;99.90;;;;;;4983183;28;20393;-37
2022/12/26 01:32:52;;;;;;;;;;;8.50;99.90;;;;;;4999620;28;20294;-37
2022/12/26 01:35:17;;;;;;;;;;;8.50;99.90;;;;;;4993239;28;19936;-38
2022/12/26 01:37:43;;;;;;;;;;;8.50;99.90;;;;;;4984426;28;19960;-38
2022/12/26 01:40:10;;;;;;;;;;;8.40;99.90;;;;;;4996101;28;19932;-39
2022/12/26 01:42:40;;;;;;;;;;;8.40;99.90;;;;;;4995995;28;19921;-37
2022/12/26 01:45:11;;;;;;;;;;;8.50;99.90;;;;;;4994683;28;19951;-37
2022/12/26 01:47:37;;;;;;;;;;;8.50;99.90;;;;;;4995486;28;20301;-37
2022/12/26 01:50:03;;;;;;;;;;;8.50;99.90;;;;;;4999418;28;19922;-37
2022/12/26 01:52:32;;;;;;;;;;;8.50;99.90;;;;;;4992500;28;19917;-37
2022/12/26 01:54:58;;;;;;;;;;;8.50;99.90;;;;;;4997811;28;19932;-36
2022/12/26 01:57:26;;;;;;;;;;;8.50;99.90;;;;;;4997497;28;20461;-37
2022/12/26 01:59:53;;;;;;;;;;;8.50;99.90;;;;;;4997180;28;19925;-38
2022/12/26 02:02:19;;;;;;;;;;;8.60;99.90;;;;;;4999540;28;19972;-38
2022/12/26 02:07:32;;;;;;;;;;;8.60;99.90;;;;;;5000066;28;20429;-37
2022/12/26 02:09:58;;;;;;;;;;;8.50;99.90;;;;;;4996614;28;20440;-37
2022/12/26 02:12:27;;;;;;;;;;;8.60;99.90;;;;;;5000331;28;19917;-43
2022/12/26 02:14:54;;;;;;;;;;;8.50;99.90;;;;;;4991953;28;19939;-37
2022/12/26 02:17:20;;;;;;;;;;;8.60;99.90;;;;;;4994291;28;19928;-38
2022/12/26 02:20:02;;;;;;;;;;;8.60;99.90;;;;;;5001856;28;19925;-37
2022/12/26 02:22:37;;;;;;;;;;;8.60;99.90;;;;;;5000521;28;19947;-37
2022/12/26 02:25:05;;;;;;;;;;;8.60;99.90;;;;;;5000947;28;19949;-37
2022/12/26 02:27:51;;;;;;;;;;;8.60;99.90;;;;;;5005919;28;20381;-38
2022/12/26 02:30:20;;;;;;;;;;;8.60;99.90;;;;;;4983413;28;19925;-39
2022/12/26 02:33:03;;;;;;;;;;;8.60;99.90;;;;;;4990632;28;19925;-38
2022/12/26 02:35:35;;;;;;;;;;;8.60;99.90;;;;;;5001598;28;19917;-37
2022/12/26 02:38:10;;;;;;;;;;;8.60;99.90;;;;;;5000386;28;20513;-38
2022/12/26 02:40:55;;;;;;;;;;;8.70;99.90;;;;;;4998082;28;20064;-39
2022/12/26 02:43:39;;;;;;;;;;;8.70;99.90;;;;;;5007047;28;20370;-37
2022/12/26 02:49:07;;;;;;;;;;;8.70;99.90;;;;;;5005137;28;20371;-37
2022/12/26 03:14:06;;;;;;;;;;;8.60;99.90;;;;;;5010743;28;19932;-36
2022/12/26 03:19:18;;;;;;;;;;;8.60;99.90;;;;;;5008322;28;20396;-38
2022/12/26 03:21:44;;;;;;;;;;;8.60;99.90;;;;;;5001970;28;19917;-37
2022/12/26 03:24:11;;;;;;;;;;;8.60;99.90;;;;;;4997589;28;19917;-38
2022/12/26 03:26:39;;;;;;;;;;;8.60;99.90;;;;;;5000606;28;20362;-37
2022/12/26 03:31:53;;;;;;;;;;;8.60;99.90;;;;;;5018196;28;20393;-37
2022/12/26 03:34:18;;;;;;;;;;;8.60;99.90;;;;;;5009399;28;19918;-37
2022/12/26 03:36:44;;;;;;;;;;;8.60;99.90;;;;;;5004477;28;19926;-38
2022/12/26 03:39:09;;;;;;;;;;;8.50;99.90;;;;;;5009271;28;20003;-37
2022/12/26 04:44:17;;;;;;;;;;;8.30;99.90;;;;;;5009169;28;19929;-37
2022/12/26 04:46:45;;;;;;;;;;;8.30;99.90;;;;;;5004284;28;19979;-38
2022/12/26 04:51:57;;;;;;;;;;;8.30;99.90;;;;;;5003596;28;19925;-38
2022/12/26 04:54:23;;;;;;;;;;;8.30;99.90;;;;;;5003624;28;20383;-40
2022/12/26 04:56:48;;;;;;;;;;;8.20;99.90;;;;;;5001587;28;19973;-37
2022/12/26 04:59:14;;;;;;;;;;;8.20;99.90;;;;;;4995406;28;20370;-38
2022/12/26 05:10:01;;;;;;;;;;;8.30;99.90;;;;;;5005955;28;19929;-36
2022/12/26 05:12:26;;;;;;;;;;;8.30;99.90;;;;;;4997973;28;20377;-38
2022/12/26 05:14:52;;;;;;;;;;;8.30;99.90;;;;;;5005782;28;20008;-39
2022/12/26 05:28:40;;;;;;;;;;;8.40;99.90;;;;;;5000750;28;19921;-37
2022/12/26 05:31:07;;;;;;;;;;;8.40;99.90;;;;;;5011937;28;19926;-38
2022/12/26 05:36:18;;;;;;;;;;;8.30;99.90;;;;;;5003718;28;20394;-38
2022/12/26 05:38:43;;;;;;;;;;;8.30;99.90;;;;;;5005457;28;20343;-39
2022/12/26 05:41:09;;;;;;;;;;;8.30;99.90;;;;;;4999506;28;19924;-37
2022/12/26 05:43:35;;;;;;;;;;;8.30;99.90;;;;;;5001283;28;20013;-37
2022/12/26 05:46:00;;;;;;;;;;;8.40;99.90;;;;;;5005400;28;20035;-37
2022/12/26 05:48:26;;;;;;;;;;;8.40;99.90;;;;;;5004975;28;19925;-38
2022/12/26 05:50:51;;;;;;;;;;;8.40;99.90;;;;;;4999861;28;19932;-38
2022/12/26 05:53:17;;;;;;;;;;;8.40;99.90;;;;;;4995258;28;19957;-38
2022/12/26 05:55:43;;;;;;;;;;;8.50;99.90;;;;;;5006492;28;19995;-37
2022/12/26 05:58:08;;;;;;;;;;;8.50;99.90;;;;;;5005679;28;20004;-38
2022/12/26 06:00:34;;;;;;;;;;;8.50;99.90;;;;;;5010794;28;19917;-37
2022/12/26 06:03:00;;;;;;;;;;;8.60;99.90;;;;;;5006728;28;19964;-37
2022/12/26 06:05:26;;;;;;;;;;;8.60;99.90;;;;;;5003255;28;19933;-37
2022/12/26 06:07:52;;;;;;;;;;;8.50;99.90;;;;;;5010003;28;19921;-37
2022/12/26 06:10:18;;;;;;;;;;;8.50;99.90;;;;;;5004887;28;19921;-38
2022/12/26 06:12:43;;;;;;;;;;;8.50;99.90;;;;;;5010362;28;20333;-38
2022/12/26 06:15:09;;;;;;;;;;;8.40;99.90;;;;;;5010686;28;20294;-38
2022/12/26 06:17:35;;;;;;;;;;;8.40;99.90;;;;;;5007626;28;19918;-40
2022/12/26 06:20:00;;;;;;;;;;;8.40;99.90;;;;;;5011110;28;20294;-36
2022/12/26 06:22:27;;;;;;;;;;;8.40;99.90;;;;;;5006850;28;19929;-38
2022/12/26 06:24:53;;;;;;;;;;;8.40;99.90;;;;;;5010332;28;19957;-37
2022/12/26 06:27:18;;;;;;;;;;;8.40;99.90;;;;;;5012358;28;20027;-37
2022/12/26 06:29:44;;;;;;;;;;;8.40;99.90;;;;;;5005918;28;19929;-38
2022/12/26 06:32:10;;;;;;;;;;;8.40;99.90;;;;;;5008615;28;19925;-37
2022/12/26 06:34:35;;;;;;;;;;;8.40;99.90;;;;;;5007427;28;19931;-38
2022/12/26 06:37:01;;;;;;;;;;;8.40;99.90;;;;;;5011579;28;19968;-39
2022/12/26 06:39:26;;;;;;;;;;;8.30;99.90;;;;;;5010758;28;19932;-37
2022/12/26 06:41:52;;;;;;;;;;;8.30;99.90;;;;;;5008406;28;19929;-38
2022/12/26 06:44:17;;;;;;;;;;;8.20;99.90;;;;;;5009255;28;19921;-37
2022/12/26 06:46:43;;;;;;;;;;;8.20;99.90;;;;;;5010182;28;19923;-38
2022/12/26 06:49:09;;;;;;;;;;;8.10;99.90;;;;;;5015155;28;19921;-37
2022/12/26 06:51:34;;;;;;;;;;;8.10;99.90;;;;;;5000827;28;19925;-37
2022/12/26 06:54:01;;;;;;;;;;;8.10;99.90;;;;;;5006099;28;19928;-37
2022/12/26 06:56:27;;;;;;;;;;;8.10;99.90;;;;;;4999029;28;19940;-37
2022/12/26 06:58:53;;;;;;;;;;;8.00;99.90;;;;;;4993439;28;19928;-38
2022/12/26 07:01:19;;;;;;;;;;;8.00;99.90;;;;;;4995373;28;19929;-37
2022/12/26 07:03:45;;;;;;;;;;;8.00;99.90;;;;;;4998310;28;19921;-37
2022/12/26 07:06:31;;;;;;;;;;;8.00;99.90;;;;;;5007486;28;19921;-37
2022/12/26 07:08:57;;;;;;;;;;;8.00;99.90;;;;;;4988249;28;20377;-38
2022/12/26 07:11:24;;;;;;;;;;;8.00;99.90;;;;;;4984641;28;19932;-42
2022/12/26 07:13:50;;;;;;;;;;;8.00;99.90;;;;;;4999460;28;19964;-37
2022/12/26 07:16:15;;;;;;;;;;;8.00;99.90;;;;;;4997843;28;19933;-37
2022/12/26 07:18:41;;;;;;;;;;;7.90;99.90;;;;;;4997548;28;19947;-38
2022/12/26 07:21:07;;;;;;;;;;;7.90;99.90;;;;;;5006695;28;19918;-42
2022/12/26 07:23:33;;;;;;;;;;;7.90;99.90;;;;;;5002198;28;19976;-38
2022/12/26 07:25:59;;;;;;;;;;;7.90;99.90;;;;;;5008102;28;19916;-37
2022/12/26 07:28:25;;;;;;;;;;;7.90;99.90;;;;;;5005817;28;19918;-37
2022/12/26 07:30:50;;;;;;;;;;;7.90;99.90;;;;;;4990759;28;19925;-39
2022/12/26 07:33:16;;;;;;;;;;;7.90;99.90;;;;;;4994834;28;19989;-37
2022/12/26 07:35:45;;;;;;;;;;;7.90;99.90;;;;;;4996051;28;20386;-38
2022/12/26 07:38:11;;;;;;;;;;;7.90;99.90;;;;;;4999240;28;20394;-37
2022/12/26 07:40:36;;;;;;;;;;;7.90;99.90;;;;;;4997967;28;19929;-37
2022/12/26 07:43:02;;;;;;;;;;;7.90;99.90;;;;;;4998540;28;19928;-38
2022/12/26 07:45:28;;;;;;;;;;;7.90;99.90;;;;;;5008285;28;19922;-38
2022/12/26 07:47:53;;;;;;;;;;;7.90;99.90;;;;;;5002936;28;19921;-37
2022/12/26 07:50:19;;;;;;;;;;;7.90;99.90;;;;;;4997268;28;19921;-37
2022/12/26 07:52:45;;;;;;;;;;;7.90;99.90;;;;;;5004653;28;19924;-37
2022/12/26 07:55:10;;;;;;;;;;;8.00;99.90;;;;;;5000278;28;19921;-37
2022/12/26 07:57:36;;;;;;;;;;;8.00;99.90;;;;;;5008539;28;19932;-37
2022/12/26 08:00:03;;;;;;;;;;;8.00;99.90;;;;;;4996848;28;19924;-37
2022/12/26 08:02:29;;;;;;;;;;;7.90;99.90;;;;;;5004074;28;20469;-38
2022/12/26 08:04:54;;;;;;;;;;;8.00;99.90;;;;;;5000208;28;20006;-37
2022/12/26 08:07:20;;;;;;;;;;;8.00;99.90;;;;;;5014243;28;19921;-38
2022/12/26 08:09:46;;;;;;;;;;;8.00;99.90;;;;;;5000569;28;20017;-38
2022/12/26 08:12:12;;;;;;;;;;;8.10;99.90;;;;;;5010280;28;19924;-37
2022/12/26 08:14:38;;;;;;;;;;;8.10;99.90;;;;;;4992825;28;20424;-37
2022/12/26 08:17:04;;;;;;;;;;;8.20;99.90;;;;;;4993856;28;19921;-37
2022/12/26 08:19:29;;;;;;;;;;;8.20;99.90;;;;;;5005503;28;19933;-37
2022/12/26 08:21:55;;;;;;;;;;;8.30;99.90;;;;;;5006640;28;19921;-38
2022/12/26 08:24:20;;;;;;;;;;;8.30;99.90;;;;;;4998963;28;19921;-37
2022/12/26 08:26:46;;;;;;;;;;;8.40;99.90;;;;;;4997089;28;19980;-38
2022/12/26 08:29:11;;;;;;;;;;;8.40;99.90;;;;;;5007700;28;19917;-37
2022/12/26 08:31:37;;;;;;;;;;;8.50;99.90;;;;;;4999864;28;20441;-41
2022/12/26 08:34:03;;;;;;;;;;;8.60;99.90;;;;;;4989873;28;19972;-37
2022/12/26 08:36:28;;;;;;;;;;;8.60;99.90;;;;;;4995072;28;19921;-37
2022/12/26 08:38:54;;;;;;;;;;;8.70;99.90;;;;;;4994420;28;19951;-38
2022/12/26 08:41:20;;;;;;;;;;;8.80;99.90;;;;;;4995667;28;20366;-37
2022/12/26 08:43:48;;;;;;;;;;;8.80;99.90;;;;;;5003046;28;19948;-36
2022/12/26 08:46:14;;;;;;;;;;;8.90;99.90;;;;;;4988212;28;19928;-39
2022/12/26 08:48:40;;;;;;;;;;;8.90;99.90;;;;;;5001587;28;19918;-37
2022/12/26 08:51:07;;;;;;;;;;;9.00;99.90;;;;;;4996637;28;19936;-37
2022/12/26 08:53:37;;;;;;;;;;;9.00;99.90;;;;;;4983770;28;20363;-43
2022/12/26 08:56:04;;;;;;;;;;;9.00;99.90;;;;;;5005332;28;19968;-42
2022/12/26 08:58:33;;;;;;;;;;;9.10;99.90;;;;;;4997922;28;19925;-45
2022/12/26 09:01:09;;;;;;;;;;;9.10;99.90;;;;;;5002507;28;19921;-41
2022/12/26 09:03:35;;;;;;;;;;;9.20;99.90;;;;;;5006451;28;20295;-43
2022/12/26 09:06:01;;;;;;;;;;;9.10;99.90;;;;;;5004164;28;19917;-43
2022/12/26 09:08:30;;;;;;;;;;;9.20;99.90;;;;;;5008127;28;19925;-43
2022/12/26 09:11:00;;;;;;;;;;;9.20;99.90;;;;;;5001306;28;20465;-43
2022/12/26 09:13:26;;;;;;;;;;;9.20;99.90;;;;;;5002007;28;20007;-42
2022/12/26 09:15:51;;;;;;;;;;;9.20;99.90;;;;;;4987498;28;19953;-36
2022/12/26 09:18:17;;;;;;;;;;;9.10;99.90;;;;;;5004708;28;19918;-37
2022/12/26 09:20:42;;;;;;;;;;;9.10;99.90;;;;;;4998820;28;20016;-36
2022/12/26 09:23:09;;;;;;;;;;;9.10;99.90;;;;;;5003255;28;19921;-38
2022/12/26 09:25:35;;;;;;;;;;;9.10;99.90;;;;;;5002825;28;20009;-42
2022/12/26 09:28:01;;;;;;;;;;;9.10;99.90;;;;;;4997781;28;20135;-42
2022/12/26 09:30:26;;;;;;;;;;;9.10;99.90;;;;;;5000997;28;19940;-41
2022/12/26 09:32:52;;;;;;;;;;;9.10;99.90;;;;;;4999825;28;20294;-44
2022/12/26 09:35:18;;;;;;;;;;;9.20;99.90;;;;;;4994968;28;19924;-45
2022/12/26 09:37:44;;;;;;;;;;;9.20;99.90;;;;;;4998529;28;19921;-41
2022/12/26 09:40:18;;;;;;;;;;;9.20;99.90;;;;;;5000630;28;20281;-44
2022/12/26 09:42:50;;;;;;;;;;;9.20;99.90;;;;;;5005987;28;20671;-44
2022/12/26 09:45:17;;;;;;;;;;;9.20;99.90;;;;;;4999977;28;20514;-39
2022/12/26 09:47:42;;;;;;;;;;;9.30;99.90;;;;;;4998624;28;19917;-44
2022/12/26 09:50:08;;;;;;;;;;;9.30;99.90;;;;;;4993098;28;19936;-43
2022/12/26 09:52:48;;;;;;;;;;;9.10;99.90;;;;;;4985861;28;19925;-40
2022/12/26 09:55:22;;;;;;;;;;;9.00;99.90;;;;;;5003028;28;19918;-43
2022/12/26 09:57:50;;;;;;;;;;;8.70;99.90;;;;;;4999197;28;20287;-42
2022/12/26 10:00:27;;;;;;;;;;;8.50;99.90;;;;;;4994059;28;20448;-43
2022/12/26 10:02:54;;;;;;;;;;;8.30;99.90;;;;;;5001411;28;19921;-43
2022/12/26 10:05:22;;;;;;;;;;;8.20;99.90;;;;;;5005643;28;19931;-43
2022/12/26 10:07:50;;;;;;;;;;;8.10;99.90;;;;;;4993444;28;19941;-49
2022/12/26 10:10:22;;;;;;;;;;;7.90;99.90;;;;;;4996679;28;20007;-45
2022/12/26 10:12:57;;;;;;;;;;;7.80;99.90;;;;;;4996865;28;20761;-42
2022/12/26 10:15:32;;;;;;;;;;;7.70;99.90;;;;;;4999048;28;19925;-49
2022/12/26 10:18:02;;;;;;;;;;;7.60;99.90;;;;;;4999112;28;19917;-46
2022/12/26 10:20:27;;;;;;;;;;;7.60;99.90;;;;;;5001348;28;20448;-49
2022/12/26 10:22:55;;;;;;;;;;;7.60;99.90;;;;;;4999857;28;19917;-49
2022/12/26 10:25:30;;;;;;;;;;;7.60;99.90;;;;;;4990787;28;19933;-41
2022/12/26 10:27:56;;;;;;;;;;;7.70;99.90;;;;;;4999010;28;19925;-45
2022/12/26 10:30:29;;;;;;;;;;;7.70;99.90;;;;;;4997244;28;19921;-45
2022/12/26 10:33:00;;;;;;;;;;;7.70;99.90;;;;;;4995230;28;20302;-45
2022/12/26 10:35:31;;;;;;;;;;;7.80;99.90;;;;;;5002595;28;19952;-54
2022/12/26 10:37:58;;;;;;;;;;;8.00;99.90;;;;;;4995448;28;19921;-38
2022/12/26 10:40:26;;;;;;;;;;;8.20;99.90;;;;;;4994895;28;20040;-51
2022/12/26 10:42:53;;;;;;;;;;;8.30;99.90;;;;;;4997988;28;20600;-39
2022/12/26 10:45:24;;;;;;;;;;;8.30;99.90;;;;;;4998697;28;19918;-45
2022/12/26 10:47:51;;;;;;;;;;;8.20;99.90;;;;;;5003295;28;19925;-45
2022/12/26 10:50:24;;;;;;;;;;;8.20;99.90;;;;;;4972073;28;20131;-40
2022/12/26 10:52:50;;;;;;;;;;;8.10;99.90;;;;;;4994373;28;19944;-48
2022/12/26 10:55:18;;;;;;;;;;;8.20;99.90;;;;;;4999745;28;20430;-53
2022/12/26 10:57:46;;;;;;;;;;;8.20;99.90;;;;;;4987957;28;19928;-47
2022/12/26 11:00:25;;;;;;;;;;;8.20;99.90;;;;;;5003742;28;19995;-48
2022/12/26 11:03:05;;;;;;;;;;;8.20;99.90;;;;;;5005914;28;20386;-47
2022/12/26 11:05:32;;;;;;;;;;;8.30;99.90;;;;;;4999030;28;19921;-48
2022/12/26 11:08:05;;;;;;;;;;;8.30;99.90;;;;;;5003794;28;19921;-44
2022/12/26 11:10:31;;;;;;;;;;;8.30;99.90;;;;;;5002957;28;19930;-44
2022/12/26 11:13:00;;;;;;;;;;;8.30;99.90;;;;;;4998009;28;19979;-43
2022/12/26 11:15:31;;;;;;;;;;;8.40;99.90;;;;;;5007770;28;20011;-43
2022/12/26 11:18:15;;;;;;;;;;;8.30;99.90;;;;;;5015129;28;19926;-48
2022/12/26 11:20:41;;;;;;;;;;;8.10;99.90;;;;;;4996425;28;20393;-47
2022/12/26 11:23:16;;;;;;;;;;;8.10;99.90;;;;;;5002192;28;19925;-45
2022/12/26 11:25:46;;;;;;;;;;;8.00;99.90;;;;;;5000052;28;19984;-46
2022/12/26 11:28:19;;;;;;;;;;;8.00;99.90;;;;;;4996045;28;19928;-49
2022/12/26 11:30:46;;;;;;;;;;;8.10;99.90;;;;;;5003252;28;19932;-41
2022/12/26 11:33:20;;;;;;;;;;;8.10;99.90;;;;;;5005155;28;20363;-45
2022/12/26 11:35:47;;;;;;;;;;;8.10;99.90;;;;;;5005047;28;20001;-46
2022/12/26 11:38:33;;;;;;;;;;;8.10;99.90;;;;;;5010462;28;19972;-48
2022/12/26 11:41:31;;;;;;;;;;;8.10;99.90;;;;;;5003464;28;20371;-41
2022/12/26 11:44:02;;;;;;;;;;;8.10;99.90;;;;;;5000497;28;19921;-46
2022/12/26 11:46:32;;;;;;;;;;;8.00;99.90;;;;;;4997194;28;19932;-43
2022/12/26 11:48:58;;;;;;;;;;;8.10;99.90;;;;;;5011275;28;19924;-43
2022/12/26 11:51:40;;;;;;;;;;;8.70;99.90;;;;;;5009054;28;19921;-41
2022/12/26 11:54:20;;;;;;;;;;;9.40;99.90;;;;;;5005083;28;20375;-41
2022/12/26 11:56:45;;;;;;;;;;;10.00;99.90;;;;;;4995946;28;20366;-43
2022/12/26 11:59:18;;;;;;;;;;;10.30;99.90;;;;;;5007253;28;19926;-43
2022/12/26 12:01:44;;;;;;;;;;;10.50;99.90;;;;;;5004952;28;19972;-43
2022/12/26 12:04:10;;;;;;;;;;;10.20;99.90;;;;;;5000399;28;19964;-39
2022/12/26 12:06:42;;;;;;;;;;;9.80;99.90;;;;;;4998207;28;19922;-39
2022/12/26 12:09:21;;;;;;;;;;;9.20;99.90;;;;;;4992653;28;19972;-40
2022/12/26 12:11:55;;;;;;;;;;;8.90;99.90;;;;;;5003007;28;20118;-42
2022/12/26 12:14:27;;;;;;;;;;;8.80;99.90;;;;;;5004268;28;19926;-41
2022/12/26 12:17:11;;;;;;;;;;;8.80;99.90;;;;;;4994351;28;19929;-40
2022/12/26 12:19:56;;;;;;;;;;;8.90;99.90;;;;;;4988009;28;19972;-43
2022/12/26 12:22:21;;;;;;;;;;;8.90;99.90;;;;;;5005049;28;19996;-41
2022/12/26 12:25:06;;;;;;;;;;;8.80;99.90;;;;;;4993892;28;19921;-43
2022/12/26 12:27:35;;;;;;;;;;;8.70;99.90;;;;;;5008668;28;23050;-47
2022/12/26 12:30:19;;;;;;;;;;;8.60;99.90;;;;;;5003002;28;19925;-40
2022/12/26 12:33:17;;;;;;;;;;;8.50;99.90;;;;;;5003442;28;19921;-45
2022/12/26 12:35:56;;;;;;;;;;;8.30;99.90;;;;;;4966709;28;20399;-40
2022/12/26 12:38:30;;;;;;;;;;;8.20;99.90;;;;;;5002854;28;19921;-42
2022/12/26 12:40:55;;;;;;;;;;;8.20;99.90;;;;;;5001125;28;20075;-43
2022/12/26 12:43:21;;;;;;;;;;;8.20;99.90;;;;;;4977718;28;20048;-40
2022/12/26 12:46:01;;;;;;;;;;;8.10;99.90;;;;;;4994115;28;19921;-41
2022/12/26 12:48:27;;;;;;;;;;;8.00;99.90;;;;;;4995700;28;19921;-40
2022/12/26 12:51:01;;;;;;;;;;;7.90;99.90;;;;;;4994465;28;19929;-38
2022/12/26 12:53:51;;;;;;;;;;;7.80;99.90;;;;;;4981474;28;20237;-43
2022/12/26 12:56:16;;;;;;;;;;;7.70;99.90;;;;;;5004432;28;19927;-43
2022/12/26 12:58:45;;;;;;;;;;;7.60;99.90;;;;;;5003954;28;20016;-42
2022/12/26 13:01:17;;;;;;;;;;;7.50;99.90;;;;;;5009069;28;19921;-42
2022/12/26 13:03:53;;;;;;;;;;;7.40;99.90;;;;;;4999219;28;19921;-42
2022/12/26 13:06:27;;;;;;;;;;;7.40;99.90;;;;;;4999196;28;19918;-42
2022/12/26 13:08:59;;;;;;;;;;;7.40;99.90;;;;;;4996933;28;19980;-42
2022/12/26 13:11:24;;;;;;;;;;;7.40;99.90;;;;;;4994376;28;19929;-42
2022/12/26 13:14:10;;;;;;;;;;;7.50;99.90;;;;;;4997944;28;20429;-44
2022/12/26 13:16:42;;;;;;;;;;;7.60;99.90;;;;;;5002082;28;19921;-42
2022/12/26 13:19:12;;;;;;;;;;;7.90;99.90;;;;;;4999972;28;19917;-43
2022/12/26 13:21:39;;;;;;;;;;;8.20;99.90;;;;;;5001114;28;20374;-42
2022/12/26 13:24:22;;;;;;;;;;;8.30;99.90;;;;;;4993568;28;20019;-43
2022/12/26 13:27:26;;;;;;;;;;;8.10;99.90;;;;;;4993958;28;19979;-43
2022/12/26 13:29:52;;;;;;;;;;;8.00;99.90;;;;;;4951640;28;19927;-41
2022/12/26 13:32:26;;;;;;;;;;;8.00;99.90;;;;;;4953700;28;19922;-43
2022/12/26 13:34:53;;;;;;;;;;;8.10;99.90;;;;;;4980757;28;19921;-43
2022/12/26 13:37:34;;;;;;;;;;;8.20;99.90;;;;;;4989505;28;19918;-40
2022/12/26 13:40:00;;;;;;;;;;;8.10;99.90;;;;;;5003799;28;20454;-42
2022/12/26 13:45:34;;;;;;;;;;;7.90;99.90;;;;;;4998338;28;20401;-43
2022/12/26 13:47:59;;;;;;;;;;;7.80;99.90;;;;;;5005963;28;19917;-45
2022/12/26 13:50:43;;;;;;;;;;;7.80;99.90;;;;;;4999176;28;19922;-44
2022/12/26 13:53:26;;;;;;;;;;;7.80;99.90;;;;;;4999856;28;19940;-42
2022/12/26 13:56:02;;;;;;;;;;;7.90;99.90;;;;;;4999269;28;19975;-40
2022/12/26 13:58:31;;;;;;;;;;;7.90;99.90;;;;;;4990274;28;19925;-41
2022/12/26 14:01:15;;;;;;;;;;;7.90;99.90;;;;;;4992717;28;19928;-41
2022/12/26 14:04:01;;;;;;;;;;;7.80;99.90;;;;;;4986150;28;20407;-40
2022/12/26 14:06:50;;;;;;;;;;;7.70;99.90;;;;;;4975822;28;20481;-40
2022/12/26 14:09:33;;;;;;;;;;;7.60;99.90;;;;;;4979793;28;19988;-42
2022/12/26 14:12:37;;;;;;;;;;;7.60;99.90;;;;;;4995795;28;20396;-42
2022/12/26 14:15:20;;;;;;;;;;;7.40;99.90;;;;;;4954547;28;19997;-43
2022/12/26 14:17:58;;;;;;;;;;;7.40;99.90;;;;;;4951779;28;19922;-39
2022/12/26 14:20:29;;;;;;;;;;;7.30;99.90;;;;;;4982921;28;19917;-43
2022/12/26 14:23:03;;;;;;;;;;;7.20;99.90;;;;;;4989950;28;20389;-38
2022/12/26 14:25:38;;;;;;;;;;;7.20;99.90;;;;;;4992628;28;19917;-42
2022/12/26 14:28:22;;;;;;;;;;;7.20;99.90;;;;;;4990826;28;19925;-42
2022/12/26 14:30:53;;;;;;;;;;;7.10;99.90;;;;;;4997802;28;20396;-42
2022/12/26 14:33:29;;;;;;;;;;;7.10;99.90;;;;;;5002030;28;20012;-42
2022/12/26 14:36:01;;;;;;;;;;;7.10;99.90;;;;;;4996109;28;20020;-42
2022/12/26 14:38:32;;;;;;;;;;;7.00;99.90;;;;;;5002107;28;20385;-40
2022/12/26 14:43:09;;;;;;;;;;;7.00;99.90;;;;;;4996395;28;20000;-43
2022/12/26 14:43:54;;;;;;;;;;;7.00;99.90;;;;;;4994474;28;19917;-40
2022/12/26 14:46:46;;;;;;;;;;;6.90;99.90;;;;;;5002959;28;19970;-43
2022/12/26 14:49:24;;;;;;;;;;;6.80;99.90;;;;;;4994290;28;19969;-39
2022/12/26 14:51:50;;;;;;;;;;;6.80;99.90;;;;;;5000136;28;20776;-42
2022/12/26 14:54:22;;;;;;;;;;;6.80;99.90;;;;;;5005497;28;19921;-43
2022/12/26 14:56:49;;;;;;;;;;;6.70;99.90;;;;;;5001348;28;20012;-42
2022/12/26 14:59:31;;;;;;;;;;;6.70;99.90;;;;;;5001546;28;20666;-42
2022/12/26 15:02:33;;;;;;;;;;;6.70;99.90;;;;;;5006305;28;19981;-43
2022/12/26 15:05:10;;;;;;;;;;;6.70;99.90;;;;;;4962022;28;19937;-50
2022/12/26 15:07:44;;;;;;;;;;;6.60;99.90;;;;;;4988675;28;20044;-47
2022/12/26 15:10:28;;;;;;;;;;;6.60;99.90;;;;;;5001451;28;19984;-43
2022/12/26 15:13:03;;;;;;;;;;;6.50;99.90;;;;;;5000070;28;19922;-44
2022/12/26 15:15:33;;;;;;;;;;;6.50;99.90;;;;;;5001394;28;19918;-40
2022/12/26 15:18:25;;;;;;;;;;;6.40;99.90;;;;;;4998376;28;19980;-47
2022/12/26 15:21:03;;;;;;;;;;;6.40;99.90;;;;;;4987435;28;20004;-41
2022/12/26 15:23:40;;;;;;;;;;;6.30;99.90;;;;;;5011078;28;20389;-42
2022/12/26 15:26:26;;;;;;;;;;;6.20;99.90;;;;;;5010694;28;20271;-43
2022/12/26 15:29:01;;;;;;;;;;;6.20;99.90;;;;;;5001526;28;20414;-42
2022/12/26 15:31:27;;;;;;;;;;;6.10;99.90;;;;;;5009007;28;19926;-40
2022/12/26 15:33:58;;;;;;;;;;;6.00;99.90;;;;;;5000376;28;19948;-42
2022/12/26 15:36:26;;;;;;;;;;;6.00;99.90;;;;;;5007063;28;19922;-42
2022/12/26 15:39:10;;;;;;;;;;;5.90;99.90;;;;;;5005115;28;19991;-41
2022/12/26 15:41:59;;;;;;;;;;;5.90;99.90;;;;;;4997279;28;20012;-41
2022/12/26 15:44:37;;;;;;;;;;;5.80;99.90;;;;;;4946464;28;19917;-41
2022/12/26 15:47:23;;;;;;;;;;;5.80;99.90;;;;;;4976651;28;19953;-42
2022/12/26 15:49:49;;;;;;;;;;;5.70;99.90;;;;;;4998650;28;20297;-37
2022/12/26 15:52:23;;;;;;;;;;;5.60;99.90;;;;;;4997414;28;19922;-42
2022/12/26 15:54:57;;;;;;;;;;;5.60;99.90;;;;;;5001211;28;19928;-45
2022/12/26 15:57:28;;;;;;;;;;;5.50;99.90;;;;;;5004839;28;19968;-40
2022/12/26 16:00:08;;;;;;;;;;;5.50;99.90;;;;;;4997749;28;20297;-42
2022/12/26 16:02:37;;;;;;;;;;;5.40;99.90;;;;;;4994530;28;20008;-41
2022/12/26 16:05:21;;;;;;;;;;;5.40;99.90;;;;;;4990097;28;19928;-41
2022/12/26 16:08:02;;;;;;;;;;;5.30;99.90;;;;;;5001944;28;20219;-43
2022/12/26 16:10:30;;;;;;;;;;;5.30;99.90;;;;;;5002987;28;20012;-44
2022/12/26 16:13:05;;;;;;;;;;;5.20;99.90;;;;;;5007820;28;20250;-43
2022/12/26 16:15:31;;;;;;;;;;;5.20;99.90;;;;;;5012538;28;19917;-45
2022/12/26 16:18:13;;;;;;;;;;;5.20;99.90;;;;;;4998646;28;20303;-40
2022/12/26 16:23:25;;;;;;;;;;;5.00;99.90;;;;;;4988458;28;19969;-45
2022/12/26 16:25:52;;;;;;;;;;;5.00;99.90;;;;;;5001469;28;19918;-39
2022/12/26 16:28:21;;;;;;;;;;;4.90;99.90;;;;;;5007461;28;19997;-42
2022/12/26 16:30:47;;;;;;;;;;;4.80;99.90;;;;;;5011745;28;19921;-42
2022/12/26 16:33:13;;;;;;;;;;;4.70;99.90;;;;;;5007215;28;19925;-41
2022/12/26 16:35:40;;;;;;;;;;;4.60;99.90;;;;;;5007880;28;20382;-44
2022/12/26 16:38:11;;;;;;;;;;;4.50;99.90;;;;;;5001688;28;20058;-43
2022/12/26 16:40:39;;;;;;;;;;;4.40;99.90;;;;;;5011284;28;20338;-41
2022/12/26 16:43:12;;;;;;;;;;;4.40;99.90;;;;;;5010935;28;19918;-42
2022/12/26 16:45:38;;;;;;;;;;;4.30;99.90;;;;;;5005344;28;19925;-44
2022/12/26 16:48:06;;;;;;;;;;;4.40;99.90;;;;;;5004845;28;19924;-40
2022/12/26 16:50:32;;;;;;;;;;;4.30;99.90;;;;;;5006907;28;19925;-44
2022/12/26 16:53:01;;;;;;;;;;;4.30;99.90;;;;;;5004465;28;19925;-44
2022/12/26 16:55:30;;;;;;;;;;;4.30;99.90;;;;;;5002494;28;19924;-42